Huey, Pennsylvania
Current Conditions -  °F | °C
As of 3:35 PM on Friday 28 Nov 2014 (Local Time) from KBTP Reporting Station
Broken Clouds Broken Clouds  
Wind Chill: 20°   Ceiling: 3500
Heat Index: 27°   Visibility: 10mi
Dew Point: 12°   Wind: 6mph
Humidity: 55%   Direction: 250°WSW
Pressure: 30.25"   Gusts: NA
Location:  41.041°N, 79.5243°W
Report Text: KBTP 282035Z AUTO 25005KT 10SM BKN035 BKN120 M03/M11 A3025 RMK AO1
Loading
Personal Weather Stations






























Interactive Weather Map New forecast layout! Learn more

10-Day Weather Forecast

Advertisements
Track Severe Weather on mobile